createdAt,value
2018-03-23T00:02:20.455Z,17.35
2018-03-23T00:04:49.098Z,17.10
2018-03-23T00:07:17.757Z,18.23
2018-03-23T00:09:46.430Z,17.00
2018-03-23T00:12:14.974Z,17.60
2018-03-23T00:14:43.410Z,18.10
2018-03-23T00:17:11.790Z,18.20
2018-03-23T00:19:40.180Z,18.87
2018-03-23T00:22:08.848Z,17.40
2018-03-23T00:24:37.284Z,17.23
2018-03-23T00:27:06.025Z,20.40
2018-03-23T00:29:34.555Z,18.10
2018-03-23T00:32:02.761Z,18.87
2018-03-23T00:34:31.866Z,18.97
2018-03-23T00:37:00.574Z,18.00
2018-03-23T00:39:29.145Z,19.17
2018-03-23T00:41:57.821Z,19.70
2018-03-23T00:44:26.505Z,18.27
2018-03-23T00:46:55.182Z,18.35
2018-03-23T00:49:23.573Z,19.50
2018-03-23T00:51:52.159Z,21.90
2018-03-23T00:54:20.793Z,18.80
2018-03-23T00:56:49.179Z,19.17
2018-03-23T00:59:17.851Z,20.57
2018-03-23T01:01:46.233Z,20.17
2018-03-23T01:04:15.310Z,21.80
2018-03-23T01:06:43.967Z,18.87
2018-03-23T01:09:12.915Z,20.60
2018-03-23T01:11:41.363Z,21.00
2018-03-23T01:14:10.020Z,20.17
2018-03-23T01:16:38.704Z,21.67
2018-03-23T01:19:07.272Z,19.37
2018-03-23T01:21:35.648Z,20.50
2018-03-23T01:24:03.991Z,20.17
2018-03-23T01:26:32.571Z,21.07
2018-03-23T01:29:01.962Z,20.17
2018-03-23T01:31:31.415Z,21.40
2018-03-23T01:34:00.702Z,22.10
2018-03-23T01:36:29.153Z,22.27
2018-03-23T01:38:57.725Z,23.03
2018-03-23T01:41:26.660Z,22.27
2018-03-23T01:43:55.957Z,24.67
2018-03-23T01:46:24.595Z,22.10
2018-03-23T01:48:53.105Z,22.40
2018-03-23T01:51:21.706Z,25.00
2018-03-23T01:53:50.365Z,23.45
2018-03-23T01:56:18.913Z,25.47
2018-03-23T01:58:47.313Z,22.00
2018-03-23T02:01:16.738Z,23.33
2018-03-23T02:03:45.349Z,22.00
2018-03-23T02:06:13.828Z,22.80
2018-03-23T02:08:42.486Z,22.65
2018-03-23T02:11:10.871Z,23.93
2018-03-23T02:13:38.923Z,25.13
2018-03-23T02:16:07.307Z,23.13
2018-03-23T02:18:35.691Z,25.30
2018-03-23T02:21:04.402Z,25.12
2018-03-23T02:23:33.047Z,24.47
2018-03-23T02:26:01.659Z,26.67
2018-03-23T02:28:30.154Z,21.93
2018-03-23T02:30:58.342Z,24.90
2018-03-23T02:33:27.490Z,23.40
2018-03-23T02:35:55.879Z,23.60
2018-03-23T02:38:24.267Z,22.50
2018-03-23T02:40:52.658Z,22.80
2018-03-23T02:43:21.115Z,23.03
2018-03-23T02:45:49.806Z,23.13
2018-03-23T02:48:18.181Z,22.30
2018-03-23T02:50:46.541Z,25.00
2018-03-23T02:53:14.910Z,22.50
2018-03-23T02:55:43.250Z,24.30
2018-03-23T02:58:11.902Z,22.87
2018-03-23T03:00:40.351Z,24.90
2018-03-23T03:03:09.006Z,23.80
2018-03-23T03:05:37.546Z,23.30
2018-03-23T03:08:06.085Z,24.60
2018-03-23T03:10:35.279Z,24.10
2018-03-23T03:13:03.957Z,24.55
2018-03-23T03:15:32.395Z,25.17
2018-03-23T03:18:01.592Z,23.97
2018-03-23T03:20:30.261Z,22.57
2018-03-23T03:22:58.640Z,25.17
2018-03-23T03:25:27.022Z,23.77
2018-03-23T03:27:56.319Z,23.47
2018-03-23T03:30:24.958Z,23.10
2018-03-23T03:32:54.386Z,23.08
2018-03-23T03:35:23.031Z,23.83
2018-03-23T03:37:51.626Z,23.30
2018-03-23T03:40:19.676Z,22.57
2018-03-23T03:42:48.349Z,23.25
2018-03-23T03:45:17.493Z,23.70
2018-03-23T03:47:46.106Z,24.67
2018-03-23T03:50:14.486Z,25.00
2018-03-23T03:52:43.174Z,22.60
2018-03-23T03:55:11.546Z,23.43
2018-03-23T03:57:39.869Z,23.67
2018-03-23T04:00:08.225Z,23.77
2018-03-23T04:02:36.890Z,24.30
2018-03-23T04:05:04.604Z,25.27
2018-03-23T04:07:33.730Z,24.33
2018-03-23T04:10:02.477Z,26.50
2018-03-23T04:12:30.909Z,24.57
2018-03-23T04:14:59.561Z,25.23
2018-03-23T04:17:28.869Z,23.83
2018-03-23T04:19:57.867Z,25.65
2018-03-23T04:22:26.335Z,25.00
2018-03-23T04:24:55.007Z,24.35
2018-03-23T04:27:23.372Z,26.07
2018-03-23T04:29:51.572Z,25.77
2018-03-23T04:32:19.951Z,26.47
2018-03-23T04:34:48.365Z,28.37
2018-03-23T04:37:17.013Z,25.17
2018-03-23T04:39:46.499Z,25.65
2018-03-23T04:42:15.007Z,24.83
2018-03-23T04:44:43.672Z,25.37
2018-03-23T04:47:13.168Z,26.00
2018-03-23T04:49:42.590Z,27.10
2018-03-23T04:52:11.051Z,28.00
2018-03-23T04:54:39.556Z,25.20
2018-03-23T04:57:08.159Z,27.70
2018-03-23T04:59:36.554Z,27.87
2018-03-23T05:02:05.694Z,27.80
2018-03-23T05:04:34.086Z,28.30
2018-03-23T05:07:02.649Z,28.60
2018-03-23T05:09:32.085Z,27.30
2018-03-23T05:12:01.478Z,29.60
2018-03-23T05:14:30.421Z,29.23
2018-03-23T05:16:59.570Z,26.33
2018-03-23T05:19:28.230Z,28.50
2018-03-23T05:21:57.645Z,28.52
2018-03-23T05:24:26.303Z,26.90
2018-03-23T05:26:55.666Z,26.77
2018-03-23T05:29:24.320Z,29.80
2018-03-23T05:31:52.735Z,25.87
2018-03-23T05:34:21.386Z,27.40
2018-03-23T05:36:49.787Z,25.63
2018-03-23T05:39:18.167Z,25.97
2018-03-23T05:41:46.826Z,27.65
2018-03-23T05:44:15.206Z,29.33
2018-03-23T05:46:43.713Z,26.70
2018-03-23T05:49:12.973Z,29.30
2018-03-23T05:51:41.497Z,28.37
2018-03-23T05:54:11.289Z,27.07
2018-03-23T05:56:39.664Z,25.80
2018-03-23T05:59:08.037Z,26.13
2018-03-23T06:01:36.425Z,27.50
2018-03-23T06:04:05.081Z,27.23
2018-03-23T06:06:33.485Z,26.87
2018-03-23T06:09:01.865Z,24.97
2018-03-23T06:11:30.416Z,27.00
2018-03-23T06:13:59.831Z,27.30
2018-03-23T06:16:28.030Z,24.90
2018-03-23T06:18:57.495Z,24.57
2018-03-23T06:21:25.865Z,26.07
2018-03-23T06:23:54.281Z,23.37
2018-03-23T06:26:23.663Z,26.10
2018-03-23T06:28:52.042Z,23.80
2018-03-23T06:31:20.496Z,24.87
2018-03-23T06:33:49.194Z,24.37
2018-03-23T06:36:17.850Z,25.08
2018-03-23T06:38:46.994Z,22.83
2018-03-23T06:41:15.370Z,21.90
2018-03-23T06:43:44.034Z,21.55
2018-03-23T06:46:12.406Z,24.33
2018-03-23T06:48:41.830Z,22.20
2018-03-23T06:51:10.682Z,22.43
2018-03-23T06:53:39.175Z,23.07
2018-03-23T06:56:08.501Z,21.43
2018-03-23T06:58:36.898Z,22.90
2018-03-23T07:01:05.273Z,24.93
2018-03-23T07:03:33.737Z,22.30
2018-03-23T07:06:02.361Z,23.23
2018-03-23T07:08:31.525Z,22.40
2018-03-23T07:11:00.322Z,20.88
2018-03-23T07:13:29.237Z,21.77
2018-03-23T07:15:57.901Z,23.47
2018-03-23T07:18:26.353Z,21.70
2018-03-23T07:20:55.055Z,20.77
2018-03-23T07:23:23.425Z,21.60
2018-03-23T07:25:51.801Z,22.33
2018-03-23T07:28:19.853Z,22.90
2018-03-23T07:30:48.477Z,21.30
2018-03-23T07:33:17.208Z,21.50
2018-03-23T07:35:46.128Z,25.07
2018-03-23T07:38:14.555Z,21.90
2018-03-23T07:40:43.710Z,23.90
2018-03-23T07:43:12.974Z,23.20
2018-03-23T07:45:41.494Z,22.00
2018-03-23T07:48:09.866Z,22.07
2018-03-23T07:50:38.254Z,22.13
2018-03-23T07:53:06.634Z,22.87
2018-03-23T07:55:35.206Z,23.33
2018-03-23T07:58:03.606Z,22.80
2018-03-23T08:00:31.982Z,25.77
2018-03-23T08:03:01.169Z,22.80
2018-03-23T08:05:29.553Z,23.40
2018-03-23T08:07:57.945Z,22.00
2018-03-23T08:10:26.265Z,24.15
2018-03-23T08:12:54.878Z,23.43
2018-03-23T08:15:23.261Z,23.20
2018-03-23T08:17:51.806Z,23.80
2018-03-23T08:20:20.217Z,21.90
2018-03-23T08:22:48.692Z,22.47
2018-03-23T08:25:17.441Z,19.58
2018-03-23T08:27:45.962Z,23.10
2018-03-23T08:30:14.643Z,20.85
2018-03-23T08:32:43.025Z,23.20
2018-03-23T08:35:11.671Z,21.00
2018-03-23T08:37:41.096Z,21.25
2018-03-23T08:40:09.416Z,22.77
2018-03-23T08:42:38.138Z,21.63
2018-03-23T08:45:07.568Z,21.27
2018-03-23T08:47:36.047Z,22.43
2018-03-23T08:50:04.054Z,20.27
2018-03-23T08:52:32.702Z,21.65
2018-03-23T08:55:01.286Z,20.20
2018-03-23T08:57:29.952Z,20.10
2018-03-23T08:59:58.334Z,18.80
2018-03-23T09:02:26.710Z,19.70
2018-03-23T09:04:55.173Z,18.77
2018-03-23T09:07:24.090Z,19.10
2018-03-23T09:09:52.742Z,19.20
2018-03-23T09:12:21.345Z,18.27
2018-03-23T09:14:50.002Z,19.17
2018-03-23T09:17:18.665Z,19.90
2018-03-23T09:19:48.158Z,20.50
2018-03-23T09:22:17.033Z,19.48
2018-03-23T09:24:45.749Z,18.30
2018-03-23T09:27:14.153Z,19.67
2018-03-23T09:29:43.613Z,23.80
2018-03-23T09:32:12.163Z,18.93
2018-03-23T09:34:41.350Z,18.62
2018-03-23T09:37:10.001Z,18.55
2018-03-23T09:39:38.341Z,16.97
2018-03-23T09:42:07.001Z,18.75
2018-03-23T09:44:35.916Z,17.87
2018-03-23T09:47:04.297Z,17.60
2018-03-23T09:49:32.949Z,18.95
2018-03-23T09:52:01.335Z,17.67
2018-03-23T09:54:29.707Z,17.80
2018-03-23T09:56:58.091Z,16.63
2018-03-23T09:59:26.980Z,17.35
2018-03-23T10:01:56.076Z,16.50
2018-03-23T10:04:24.459Z,18.13
2018-03-23T10:06:52.844Z,17.47
2018-03-23T10:09:21.551Z,16.17
2018-03-23T10:11:50.185Z,16.10
2018-03-23T10:14:18.588Z,17.73
2018-03-23T10:16:46.982Z,16.27
2018-03-23T10:19:15.494Z,15.80
2018-03-23T10:21:45.144Z,15.68
2018-03-23T10:24:13.518Z,15.63
2018-03-23T10:26:42.189Z,16.13
2018-03-23T10:29:10.596Z,16.00
2018-03-23T10:31:39.290Z,14.63
2018-03-23T10:34:07.942Z,14.90
2018-03-23T10:36:36.601Z,13.00
2018-03-23T10:39:04.402Z,13.93
2018-03-23T10:41:32.785Z,13.47
2018-03-23T10:44:01.277Z,14.00
2018-03-23T10:46:29.833Z,12.10
2018-03-23T10:48:58.213Z,13.10
2018-03-23T10:51:26.589Z,13.70
2018-03-23T10:53:54.971Z,14.57
2018-03-23T10:56:23.355Z,12.07
2018-03-23T10:58:51.857Z,11.63
2018-03-23T11:01:25.886Z,12.60
2018-03-23T11:03:55.041Z,13.10
2018-03-23T11:06:23.417Z,12.47
2018-03-23T11:08:52.075Z,13.20
2018-03-23T11:11:20.868Z,12.97
2018-03-23T11:13:49.269Z,12.23
2018-03-23T11:16:17.664Z,12.63
2018-03-23T11:18:46.093Z,12.00
2018-03-23T11:21:15.505Z,11.97
2018-03-23T11:23:44.929Z,12.33
2018-03-23T11:26:13.585Z,13.57
2018-03-23T11:28:41.973Z,13.47
2018-03-23T11:31:11.393Z,14.60
2018-03-23T11:33:40.068Z,13.93
2018-03-23T11:36:08.457Z,14.47
2018-03-23T11:38:36.846Z,13.03
2018-03-23T11:41:05.162Z,13.95
2018-03-23T11:43:33.646Z,15.07
2018-03-23T11:46:03.166Z,14.97
2018-03-23T11:48:32.814Z,13.23
2018-03-23T11:51:01.468Z,13.43
2018-03-23T11:53:30.484Z,14.33
2018-03-23T11:55:58.650Z,13.63
2018-03-23T11:58:27.038Z,13.60
2018-03-23T12:00:55.694Z,14.40
2018-03-23T12:03:24.418Z,16.30
2018-03-23T12:05:53.118Z,15.60
2018-03-23T12:08:21.488Z,15.47
2018-03-23T12:10:50.936Z,15.07
2018-03-23T12:13:20.258Z,16.80
2018-03-23T12:15:49.450Z,15.87
2018-03-23T12:18:17.813Z,16.23
2018-03-23T12:20:47.249Z,14.82
2018-03-23T12:23:15.833Z,15.80
2018-03-23T12:25:44.036Z,15.13
2018-03-23T12:28:13.201Z,14.10
2018-03-23T12:30:41.596Z,13.97
2018-03-23T12:33:10.241Z,15.05
2018-03-23T12:35:38.956Z,14.17
2018-03-23T12:38:07.674Z,13.85
2018-03-23T12:40:36.179Z,15.13
2018-03-23T12:43:04.571Z,14.23
2018-03-23T12:45:34.107Z,13.07
2018-03-23T12:48:03.377Z,15.00
2018-03-23T12:50:32.033Z,14.17
2018-03-23T12:53:00.701Z,13.70
2018-03-23T12:55:29.251Z,13.37
2018-03-23T12:57:57.446Z,14.40
2018-03-23T13:00:25.830Z,14.77
2018-03-23T13:02:55.006Z,14.10
2018-03-23T13:05:23.860Z,13.47
2018-03-23T13:07:52.398Z,14.40
2018-03-23T13:10:20.974Z,15.37
2018-03-23T13:12:49.440Z,12.80
2018-03-23T13:15:18.286Z,13.82
2018-03-23T13:17:46.897Z,14.33
2018-03-23T13:20:15.290Z,13.90
2018-03-23T13:22:44.092Z,13.07
2018-03-23T13:25:12.718Z,12.40
2018-03-23T13:27:41.227Z,13.10
2018-03-23T13:30:10.453Z,13.30
2018-03-23T13:32:39.739Z,12.57
2018-03-23T13:35:08.133Z,12.73
2018-03-23T13:37:37.666Z,13.83
2018-03-23T13:40:06.095Z,14.00
2018-03-23T13:42:34.789Z,13.17
2018-03-23T13:45:03.405Z,12.30
2018-03-23T13:47:31.883Z,12.67
2018-03-23T13:50:00.415Z,11.27
2018-03-23T13:52:28.963Z,12.23
2018-03-23T13:54:58.397Z,10.25
2018-03-23T13:57:27.221Z,10.50
2018-03-23T13:59:59.172Z,9.73
2018-03-23T14:02:27.906Z,10.95
2018-03-23T14:04:56.701Z,11.60
2018-03-23T14:07:25.118Z,9.60
2018-03-23T14:09:53.853Z,10.80
2018-03-23T14:12:23.081Z,11.67
2018-03-23T14:14:51.401Z,11.07
2018-03-23T14:17:20.901Z,10.80
2018-03-23T14:19:49.565Z,11.48
2018-03-23T14:22:18.355Z,12.13
2018-03-23T14:24:46.887Z,12.30
2018-03-23T14:27:15.273Z,11.20
2018-03-23T14:29:43.933Z,10.37
2018-03-23T14:32:13.395Z,10.80
2018-03-23T14:34:42.110Z,11.13
2018-03-23T14:37:10.535Z,11.33
2018-03-23T14:39:39.199Z,11.93
2018-03-23T14:42:07.591Z,12.00
2018-03-23T14:44:36.195Z,11.97
2018-03-23T14:47:04.601Z,13.27
2018-03-23T14:49:33.742Z,12.20
2018-03-23T14:52:02.131Z,11.23
2018-03-23T14:54:30.631Z,11.90
2018-03-23T14:56:59.031Z,12.10
2018-03-23T14:59:27.506Z,11.60
2018-03-23T15:01:56.124Z,11.63
2018-03-23T15:04:24.510Z,11.90
2018-03-23T15:06:53.842Z,11.73
2018-03-23T15:09:22.512Z,10.77
2018-03-23T15:11:51.170Z,13.40
2018-03-23T15:14:18.897Z,12.20
2018-03-23T15:16:47.554Z,11.87
2018-03-23T15:19:16.167Z,12.10
2018-03-23T15:21:44.621Z,11.33
2018-03-23T15:24:13.147Z,12.07
2018-03-23T15:26:41.791Z,12.95
2018-03-23T15:29:11.189Z,13.67
2018-03-23T15:31:39.849Z,12.87
2018-03-23T15:34:09.288Z,12.02
2018-03-23T15:36:37.949Z,12.95
2018-03-23T15:39:06.000Z,10.97
2018-03-23T15:41:34.387Z,13.30
2018-03-23T15:44:02.797Z,13.17
2018-03-23T15:46:31.464Z,13.60
2018-03-23T15:49:00.128Z,13.60
2018-03-23T15:51:28.706Z,11.27
2018-03-23T15:53:58.151Z,12.03
2018-03-23T15:56:26.535Z,12.77
2018-03-23T15:58:55.227Z,11.90
2018-03-23T16:01:24.631Z,11.97
2018-03-23T16:03:53.361Z,13.43
2018-03-23T16:06:22.795Z,11.95
2018-03-23T16:08:51.178Z,11.40
2018-03-23T16:11:19.613Z,13.20
2018-03-23T16:13:49.035Z,12.77
2018-03-23T16:16:17.629Z,12.53
2018-03-23T16:18:46.288Z,12.98
2018-03-23T16:21:15.722Z,11.70
2018-03-23T16:23:44.383Z,12.43
2018-03-23T16:26:12.802Z,11.37
2018-03-23T16:28:41.178Z,11.30
2018-03-23T16:31:09.570Z,11.13
2018-03-23T16:33:37.838Z,11.20
2018-03-23T16:36:06.226Z,10.93
2018-03-23T16:38:35.378Z,11.00
2018-03-23T16:41:04.057Z,13.18
2018-03-23T16:43:32.500Z,12.25
2018-03-23T16:46:00.954Z,12.37
2018-03-23T16:48:29.425Z,11.60
2018-03-23T16:50:57.861Z,12.73
2018-03-23T16:53:26.241Z,12.30
2018-03-23T16:55:55.686Z,12.27
2018-03-23T16:58:24.347Z,12.77
2018-03-23T17:00:52.742Z,13.40
2018-03-23T17:03:21.138Z,12.87
2018-03-23T17:05:49.533Z,11.60
2018-03-23T17:08:17.771Z,12.47
2018-03-23T17:10:46.166Z,12.60
2018-03-23T17:13:14.694Z,13.13
2018-03-23T17:15:44.166Z,13.55
2018-03-23T17:18:13.323Z,13.47
2018-03-23T17:20:41.983Z,12.93
2018-03-23T17:23:10.779Z,13.25
2018-03-23T17:25:39.167Z,14.53
2018-03-23T17:28:07.730Z,13.60
2018-03-23T17:30:36.547Z,12.45
2018-03-23T17:33:05.266Z,13.58
2018-03-23T17:35:34.407Z,12.20
2018-03-23T17:38:03.842Z,13.03
2018-03-23T17:40:33.377Z,11.80
2018-03-23T17:43:02.743Z,12.33
2018-03-23T17:45:31.201Z,13.83
2018-03-23T17:47:59.701Z,13.70
2018-03-23T17:50:28.408Z,13.77
2018-03-23T17:52:57.256Z,12.77
2018-03-23T17:55:25.801Z,12.97
2018-03-23T17:57:54.506Z,13.40
2018-03-23T18:00:23.174Z,13.85
2018-03-23T18:02:51.562Z,13.20
2018-03-23T18:05:19.992Z,14.40
2018-03-23T18:07:49.098Z,15.13
2018-03-23T18:10:17.680Z,14.50
2018-03-23T18:12:46.091Z,13.97
2018-03-23T18:15:14.945Z,15.43
2018-03-23T18:17:43.466Z,16.00
2018-03-23T18:20:12.308Z,13.93
2018-03-23T18:22:40.973Z,15.43
2018-03-23T18:25:09.420Z,15.30
2018-03-23T18:27:38.241Z,14.98
2018-03-23T18:30:06.371Z,15.30
2018-03-23T18:32:36.097Z,15.27
2018-03-23T18:35:05.228Z,14.80
2018-03-23T18:37:33.817Z,15.90
2018-03-23T18:40:02.253Z,13.90
2018-03-23T18:42:30.923Z,16.10
2018-03-23T18:44:59.583Z,15.77
2018-03-23T18:47:28.072Z,14.70
2018-03-23T18:49:57.343Z,14.63
2018-03-23T18:52:27.203Z,16.10
2018-03-23T18:54:55.871Z,15.77
2018-03-23T18:57:25.235Z,15.50
2018-03-23T18:59:54.648Z,15.85
2018-03-23T19:02:24.081Z,15.98
2018-03-23T19:04:52.951Z,14.53
2018-03-23T19:07:21.640Z,15.77
2018-03-23T19:09:50.374Z,15.30
2018-03-23T19:12:18.771Z,17.07
2018-03-23T19:14:47.210Z,16.00
2018-03-23T19:17:15.616Z,15.80
2018-03-23T19:19:44.063Z,15.63
2018-03-23T19:22:12.778Z,16.10
2018-03-23T19:24:41.447Z,15.07
2018-03-23T19:27:09.850Z,15.27
2018-03-23T19:29:39.237Z,15.93
2018-03-23T19:32:07.835Z,16.27
2018-03-23T19:34:36.762Z,16.20
2018-03-23T19:37:05.437Z,16.33
2018-03-23T19:39:33.876Z,16.60
2018-03-23T19:42:02.282Z,17.93
2018-03-23T19:44:31.539Z,16.20
2018-03-23T19:47:01.692Z,17.07
2018-03-23T19:49:30.561Z,16.17
2018-03-23T19:52:00.009Z,16.05
2018-03-23T19:54:28.386Z,16.37
2018-03-23T19:56:57.538Z,16.40
2018-03-23T19:59:27.136Z,16.62
2018-03-23T20:01:56.668Z,15.73
2018-03-23T20:04:25.075Z,16.27
2018-03-23T20:06:53.520Z,16.33
2018-03-23T20:09:22.202Z,16.13
2018-03-23T20:11:50.898Z,16.12
2018-03-23T20:14:19.293Z,15.23
2018-03-23T20:16:47.954Z,15.10
2018-03-23T20:19:16.829Z,15.43
2018-03-23T20:21:45.452Z,15.33
2018-03-23T20:24:19.507Z,14.43
2018-03-23T20:26:47.908Z,15.97
2018-03-23T20:29:16.658Z,15.23
2018-03-23T20:31:51.711Z,15.50
2018-03-23T20:34:21.179Z,15.20
2018-03-23T20:36:49.837Z,15.68
2018-03-23T20:39:18.556Z,15.60
2018-03-23T20:41:47.239Z,15.43
2018-03-23T20:44:16.511Z,14.97
2018-03-23T20:46:44.890Z,15.80
2018-03-23T20:49:13.279Z,17.37
2018-03-23T20:51:41.771Z,16.93
2018-03-23T20:54:10.447Z,18.87
2018-03-23T20:56:38.934Z,16.67
2018-03-23T20:59:07.491Z,17.83
2018-03-23T21:01:35.878Z,16.97
2018-03-23T21:04:04.267Z,17.73
2018-03-23T21:06:32.690Z,17.20
2018-03-23T21:09:01.086Z,16.37
2018-03-23T21:11:29.498Z,16.93
2018-03-23T21:13:58.002Z,15.50
2018-03-23T21:16:26.960Z,17.08
2018-03-23T21:18:55.358Z,16.10
2018-03-23T21:21:24.576Z,17.30
2018-03-23T21:23:53.418Z,16.20
2018-03-23T21:26:21.860Z,18.60
2018-03-23T21:28:50.238Z,16.20
2018-03-23T21:31:18.622Z,15.50
2018-03-23T21:33:47.019Z,15.93
2018-03-23T21:36:15.525Z,15.57
2018-03-23T21:38:45.730Z,15.43
2018-03-23T21:41:14.745Z,17.30
2018-03-23T21:43:43.207Z,17.40
2018-03-23T21:46:11.610Z,15.77
2018-03-23T21:48:40.359Z,16.47
2018-03-23T21:51:09.576Z,16.17
2018-03-23T21:53:38.252Z,15.52
2018-03-23T21:56:06.931Z,15.90
2018-03-23T21:58:35.639Z,15.07
2018-03-23T22:01:04.310Z,13.82
2018-03-23T22:03:33.079Z,16.13
2018-03-23T22:06:01.498Z,15.77
2018-03-23T22:08:30.380Z,15.40
2018-03-23T22:10:59.073Z,16.05
2018-03-23T22:13:27.798Z,14.73
2018-03-23T22:15:56.655Z,15.20
2018-03-23T22:18:25.803Z,17.70
2018-03-23T22:20:54.279Z,16.30
2018-03-23T22:23:22.663Z,14.77
2018-03-23T22:25:51.342Z,16.27
2018-03-23T22:28:20.147Z,16.17
2018-03-23T22:30:50.383Z,14.80
2018-03-23T22:33:19.050Z,14.15
2018-03-23T22:35:47.806Z,16.30
2018-03-23T22:38:16.502Z,16.27
2018-03-23T22:40:45.921Z,15.70
2018-03-23T22:43:14.386Z,17.63
2018-03-23T22:45:43.082Z,16.35
2018-03-23T22:48:11.809Z,16.55
2018-03-23T22:50:40.558Z,16.07
2018-03-23T22:53:10.043Z,14.97
2018-03-23T22:55:38.610Z,16.00
2018-03-23T22:58:07.014Z,15.63
2018-03-23T23:00:35.064Z,17.43
2018-03-23T23:03:03.466Z,18.55
2018-03-23T23:05:31.857Z,17.20
2018-03-23T23:08:00.382Z,17.10
2018-03-23T23:10:28.784Z,17.37
2018-03-23T23:12:57.672Z,16.60
2018-03-23T23:15:26.270Z,15.33
2018-03-23T23:17:54.662Z,17.50
2018-03-23T23:20:24.296Z,17.80
2018-03-23T23:22:52.683Z,15.50
2018-03-23T23:25:21.281Z,17.10
2018-03-23T23:27:49.955Z,17.47
2018-03-23T23:30:18.143Z,17.07
2018-03-23T23:32:46.947Z,17.40
2018-03-23T23:35:16.405Z,16.67
2018-03-23T23:37:45.869Z,16.70
2018-03-23T23:40:14.303Z,17.40
2018-03-23T23:42:42.986Z,18.45
2018-03-23T23:45:11.675Z,17.33
2018-03-23T23:47:40.341Z,17.60
2018-03-23T23:50:09.039Z,18.70
2018-03-23T23:52:37.909Z,17.67
2018-03-23T23:55:06.611Z,19.43
2018-03-23T23:57:35.283Z,19.23
